sensor_id;sensor_type;location;lat;lon;timestamp;P1;durP1;ratioP1;P2;durP2;ratioP2
19032;SDS011;9649;51.042;13.804;2023-04-19T00:00:52;26.40;;;17.50;;
19032;SDS011;9649;51.042;13.804;2023-04-19T00:05:57;26.80;;;17.10;;
19032;SDS011;9649;51.042;13.804;2023-04-19T00:11:00;25.87;;;14.33;;
19032;SDS011;9649;51.042;13.804;2023-04-19T00:16:05;20.13;;;12.67;;
19032;SDS011;9649;51.042;13.804;2023-04-19T00:21:09;21.20;;;12.20;;
19032;SDS011;9649;51.042;13.804;2023-04-19T00:26:11;17.17;;;11.37;;
19032;SDS011;9649;51.042;13.804;2023-04-19T00:31:17;14.87;;;10.03;;
19032;SDS011;9649;51.042;13.804;2023-04-19T00:36:20;16.77;;;9.40;;
19032;SDS011;9649;51.042;13.804;2023-04-19T00:41:22;19.03;;;8.93;;
19032;SDS011;9649;51.042;13.804;2023-04-19T00:46:26;14.30;;;8.90;;
19032;SDS011;9649;51.042;13.804;2023-04-19T00:51:29;15.17;;;8.23;;
19032;SDS011;9649;51.042;13.804;2023-04-19T00:56:32;12.57;;;8.37;;
19032;SDS011;9649;51.042;13.804;2023-04-19T01:01:37;14.33;;;7.83;;
19032;SDS011;9649;51.042;13.804;2023-04-19T01:06:40;12.83;;;7.47;;
19032;SDS011;9649;51.042;13.804;2023-04-19T01:11:43;12.40;;;7.27;;
19032;SDS011;9649;51.042;13.804;2023-04-19T01:16:48;9.03;;;6.37;;
19032;SDS011;9649;51.042;13.804;2023-04-19T01:21:50;13.63;;;6.63;;
19032;SDS011;9649;51.042;13.804;2023-04-19T01:26:55;11.53;;;6.53;;
19032;SDS011;9649;51.042;13.804;2023-04-19T01:31:57;12.40;;;6.50;;
19032;SDS011;9649;51.042;13.804;2023-04-19T01:37:00;10.50;;;6.10;;
19032;SDS011;9649;51.042;13.804;2023-04-19T01:42:04;9.13;;;5.87;;
19032;SDS011;9649;51.042;13.804;2023-04-19T01:47:07;11.93;;;5.77;;
19032;SDS011;9649;51.042;13.804;2023-04-19T01:52:10;12.40;;;6.67;;
19032;SDS011;9649;51.042;13.804;2023-04-19T01:57:14;11.90;;;6.70;;
19032;SDS011;9649;51.042;13.804;2023-04-19T02:02:18;16.07;;;6.87;;
19032;SDS011;9649;51.042;13.804;2023-04-19T02:07:22;11.00;;;6.70;;
19032;SDS011;9649;51.042;13.804;2023-04-19T02:12:26;12.87;;;6.97;;
19032;SDS011;9649;51.042;13.804;2023-04-19T02:17:29;8.07;;;6.33;;
19032;SDS011;9649;51.042;13.804;2023-04-19T02:22:32;15.30;;;7.10;;
19032;SDS011;9649;51.042;13.804;2023-04-19T02:27:36;11.87;;;7.03;;
19032;SDS011;9649;51.042;13.804;2023-04-19T02:32:39;12.27;;;6.97;;
19032;SDS011;9649;51.042;13.804;2023-04-19T02:37:42;15.10;;;7.77;;
19032;SDS011;9649;51.042;13.804;2023-04-19T02:42:47;12.60;;;7.30;;
19032;SDS011;9649;51.042;13.804;2023-04-19T02:48:01;11.20;;;6.70;;
19032;SDS011;9649;51.042;13.804;2023-04-19T02:53:17;14.03;;;7.60;;
19032;SDS011;9649;51.042;13.804;2023-04-19T02:58:32;12.20;;;7.50;;
19032;SDS011;9649;51.042;13.804;2023-04-19T03:03:37;16.93;;;8.10;;
19032;SDS011;9649;51.042;13.804;2023-04-19T03:08:59;13.47;;;7.77;;
19032;SDS011;9649;51.042;13.804;2023-04-19T03:14:12;14.57;;;8.00;;
19032;SDS011;9649;51.042;13.804;2023-04-19T03:19:15;13.57;;;8.60;;
19032;SDS011;9649;51.042;13.804;2023-04-19T03:24:18;13.43;;;9.17;;
19032;SDS011;9649;51.042;13.804;2023-04-19T03:29:22;21.70;;;10.13;;
19032;SDS011;9649;51.042;13.804;2023-04-19T03:34:25;16.77;;;9.90;;
19032;SDS011;9649;51.042;13.804;2023-04-19T03:39:28;17.73;;;10.27;;
19032;SDS011;9649;51.042;13.804;2023-04-19T03:44:32;17.00;;;10.60;;
19032;SDS011;9649;51.042;13.804;2023-04-19T03:49:35;21.50;;;11.93;;
19032;SDS011;9649;51.042;13.804;2023-04-19T03:54:37;19.03;;;11.27;;
19032;SDS011;9649;51.042;13.804;2023-04-19T03:59:41;19.07;;;11.40;;
19032;SDS011;9649;51.042;13.804;2023-04-19T04:04:44;21.17;;;11.40;;
19032;SDS011;9649;51.042;13.804;2023-04-19T04:09:47;18.60;;;10.90;;
19032;SDS011;9649;51.042;13.804;2023-04-19T04:14:51;16.17;;;10.13;;
19032;SDS011;9649;51.042;13.804;2023-04-19T04:19:54;15.63;;;10.23;;
19032;SDS011;9649;51.042;13.804;2023-04-19T04:24:57;14.70;;;9.90;;
19032;SDS011;9649;51.042;13.804;2023-04-19T04:30:02;21.47;;;9.67;;
19032;SDS011;9649;51.042;13.804;2023-04-19T04:35:06;15.90;;;8.73;;
19032;SDS011;9649;51.042;13.804;2023-04-19T04:40:10;16.47;;;8.40;;
19032;SDS011;9649;51.042;13.804;2023-04-19T04:45:14;13.90;;;7.63;;
19032;SDS011;9649;51.042;13.804;2023-04-19T04:50:18;13.03;;;6.67;;
19032;SDS011;9649;51.042;13.804;2023-04-19T04:55:21;14.37;;;7.07;;
19032;SDS011;9649;51.042;13.804;2023-04-19T05:00:25;9.00;;;5.50;;
19032;SDS011;9649;51.042;13.804;2023-04-19T05:05:28;10.63;;;5.60;;
19032;SDS011;9649;51.042;13.804;2023-04-19T05:10:31;10.13;;;5.47;;
19032;SDS011;9649;51.042;13.804;2023-04-19T05:15:35;9.20;;;5.00;;
19032;SDS011;9649;51.042;13.804;2023-04-19T05:20:38;10.73;;;4.80;;
19032;SDS011;9649;51.042;13.804;2023-04-19T05:25:40;7.47;;;4.30;;
19032;SDS011;9649;51.042;13.804;2023-04-19T05:30:44;7.03;;;3.80;;
19032;SDS011;9649;51.042;13.804;2023-04-19T05:35:47;6.57;;;3.60;;
19032;SDS011;9649;51.042;13.804;2023-04-19T05:40:50;6.23;;;3.30;;
19032;SDS011;9649;51.042;13.804;2023-04-19T05:45:54;5.20;;;3.03;;
19032;SDS011;9649;51.042;13.804;2023-04-19T05:50:57;6.77;;;3.60;;
19032;SDS011;9649;51.042;13.804;2023-04-19T05:55:59;7.73;;;3.87;;
19032;SDS011;9649;51.042;13.804;2023-04-19T06:01:03;5.63;;;3.00;;
19032;SDS011;9649;51.042;13.804;2023-04-19T06:06:07;5.20;;;2.87;;
19032;SDS011;9649;51.042;13.804;2023-04-19T06:11:10;7.33;;;2.77;;
19032;SDS011;9649;51.042;13.804;2023-04-19T06:16:30;5.90;;;2.43;;
19032;SDS011;9649;51.042;13.804;2023-04-19T06:21:33;4.90;;;2.60;;
19032;SDS011;9649;51.042;13.804;2023-04-19T06:26:36;5.33;;;2.40;;
19032;SDS011;9649;51.042;13.804;2023-04-19T06:31:40;6.13;;;2.37;;
19032;SDS011;9649;51.042;13.804;2023-04-19T06:36:43;4.20;;;2.23;;
19032;SDS011;9649;51.042;13.804;2023-04-19T06:41:46;5.90;;;2.10;;
19032;SDS011;9649;51.042;13.804;2023-04-19T06:46:50;4.17;;;2.07;;
19032;SDS011;9649;51.042;13.804;2023-04-19T06:51:53;3.90;;;2.03;;
19032;SDS011;9649;51.042;13.804;2023-04-19T06:56:56;4.50;;;2.20;;
19032;SDS011;9649;51.042;13.804;2023-04-19T07:02:00;3.20;;;2.00;;
19032;SDS011;9649;51.042;13.804;2023-04-19T07:07:03;5.93;;;2.10;;
19032;SDS011;9649;51.042;13.804;2023-04-19T07:12:09;4.20;;;2.20;;
19032;SDS011;9649;51.042;13.804;2023-04-19T07:17:13;4.87;;;2.27;;
19032;SDS011;9649;51.042;13.804;2023-04-19T07:22:16;4.80;;;2.00;;
19032;SDS011;9649;51.042;13.804;2023-04-19T07:27:19;3.30;;;2.13;;
19032;SDS011;9649;51.042;13.804;2023-04-19T07:32:23;5.33;;;1.90;;
19032;SDS011;9649;51.042;13.804;2023-04-19T07:37:26;6.50;;;2.60;;
19032;SDS011;9649;51.042;13.804;2023-04-19T07:42:29;4.47;;;2.60;;
19032;SDS011;9649;51.042;13.804;2023-04-19T07:47:33;3.67;;;2.17;;
19032;SDS011;9649;51.042;13.804;2023-04-19T07:52:35;3.83;;;2.03;;
19032;SDS011;9649;51.042;13.804;2023-04-19T07:57:38;4.83;;;2.50;;
19032;SDS011;9649;51.042;13.804;2023-04-19T08:02:47;4.47;;;2.03;;
19032;SDS011;9649;51.042;13.804;2023-04-19T08:07:50;3.93;;;2.00;;
19032;SDS011;9649;51.042;13.804;2023-04-19T08:12:54;3.70;;;2.10;;
19032;SDS011;9649;51.042;13.804;2023-04-19T08:18:06;6.33;;;2.30;;
19032;SDS011;9649;51.042;13.804;2023-04-19T08:23:09;6.53;;;2.10;;
19032;SDS011;9649;51.042;13.804;2023-04-19T08:28:24;5.00;;;2.00;;
19032;SDS011;9649;51.042;13.804;2023-04-19T08:33:28;5.00;;;2.38;;
19032;SDS011;9649;51.042;13.804;2023-04-19T08:38:31;5.65;;;2.13;;
19032;SDS011;9649;51.042;13.804;2023-04-19T08:43:34;2.80;;;2.08;;
19032;SDS011;9649;51.042;13.804;2023-04-19T08:48:42;7.50;;;2.20;;
19032;SDS011;9649;51.042;13.804;2023-04-19T08:53:47;4.95;;;2.53;;
19032;SDS011;9649;51.042;13.804;2023-04-19T08:58:51;3.75;;;2.30;;
19032;SDS011;9649;51.042;13.804;2023-04-19T09:04:15;3.38;;;2.08;;
19032;SDS011;9649;51.042;13.804;2023-04-19T09:09:37;5.95;;;2.40;;
19032;SDS011;9649;51.042;13.804;2023-04-19T09:15:02;3.05;;;2.03;;
19032;SDS011;9649;51.042;13.804;2023-04-19T09:20:10;4.70;;;2.60;;
19032;SDS011;9649;51.042;13.804;2023-04-19T09:25:22;6.07;;;2.50;;
19032;SDS011;9649;51.042;13.804;2023-04-19T09:30:45;9.93;;;2.67;;
19032;SDS011;9649;51.042;13.804;2023-04-19T09:36:09;4.80;;;2.53;;
19032;SDS011;9649;51.042;13.804;2023-04-19T09:41:15;5.95;;;2.83;;
19032;SDS011;9649;51.042;13.804;2023-04-19T09:46:31;5.75;;;2.72;;
19032;SDS011;9649;51.042;13.804;2023-04-19T09:51:40;4.35;;;2.42;;
19032;SDS011;9649;51.042;13.804;2023-04-19T09:56:43;6.63;;;2.60;;
19032;SDS011;9649;51.042;13.804;2023-04-19T10:01:47;6.18;;;2.33;;
19032;SDS011;9649;51.042;13.804;2023-04-19T10:06:56;5.80;;;2.60;;
19032;SDS011;9649;51.042;13.804;2023-04-19T10:12:20;4.97;;;2.33;;
19032;SDS011;9649;51.042;13.804;2023-04-19T10:17:29;4.07;;;2.20;;
19032;SDS011;9649;51.042;13.804;2023-04-19T10:22:37;4.03;;;2.30;;
19032;SDS011;9649;51.042;13.804;2023-04-19T10:27:43;6.88;;;2.63;;
19032;SDS011;9649;51.042;13.804;2023-04-19T10:32:51;3.05;;;2.20;;
19032;SDS011;9649;51.042;13.804;2023-04-19T10:38:04;5.70;;;2.75;;
19032;SDS011;9649;51.042;13.804;2023-04-19T10:43:15;4.45;;;2.20;;
19032;SDS011;9649;51.042;13.804;2023-04-19T10:48:31;4.80;;;2.60;;
19032;SDS011;9649;51.042;13.804;2023-04-19T10:53:43;6.35;;;2.85;;
19032;SDS011;9649;51.042;13.804;2023-04-19T10:59:11;3.78;;;2.60;;
19032;SDS011;9649;51.042;13.804;2023-04-19T11:04:23;5.78;;;2.22;;
19032;SDS011;9649;51.042;13.804;2023-04-19T11:10:02;3.17;;;2.30;;
19032;SDS011;9649;51.042;13.804;2023-04-19T11:15:05;3.50;;;2.03;;
19032;SDS011;9649;51.042;13.804;2023-04-19T11:20:10;4.32;;;2.22;;
19032;SDS011;9649;51.042;13.804;2023-04-19T11:25:16;3.53;;;2.22;;
19032;SDS011;9649;51.042;13.804;2023-04-19T11:30:21;5.65;;;2.50;;
19032;SDS011;9649;51.042;13.804;2023-04-19T11:35:30;7.03;;;2.30;;
19032;SDS011;9649;51.042;13.804;2023-04-19T11:40:34;3.97;;;2.35;;
19032;SDS011;9649;51.042;13.804;2023-04-19T11:45:37;4.07;;;2.08;;
19032;SDS011;9649;51.042;13.804;2023-04-19T11:50:41;5.70;;;2.42;;
19032;SDS011;9649;51.042;13.804;2023-04-19T11:55:51;3.35;;;2.40;;
19032;SDS011;9649;51.042;13.804;2023-04-19T12:00:57;4.03;;;1.83;;
19032;SDS011;9649;51.042;13.804;2023-04-19T12:06:09;4.43;;;2.40;;
19032;SDS011;9649;51.042;13.804;2023-04-19T12:11:15;5.60;;;2.38;;
19032;SDS011;9649;51.042;13.804;2023-04-19T12:16:28;5.82;;;2.30;;
19032;SDS011;9649;51.042;13.804;2023-04-19T12:22:12;3.10;;;2.17;;
19032;SDS011;9649;51.042;13.804;2023-04-19T12:27:42;5.05;;;2.45;;
19032;SDS011;9649;51.042;13.804;2023-04-19T12:32:58;4.63;;;2.40;;
19032;SDS011;9649;51.042;13.804;2023-04-19T12:38:40;6.20;;;2.25;;
19032;SDS011;9649;51.042;13.804;2023-04-19T12:43:44;6.60;;;2.50;;
19032;SDS011;9649;51.042;13.804;2023-04-19T12:48:47;5.32;;;2.42;;
19032;SDS011;9649;51.042;13.804;2023-04-19T12:53:51;6.82;;;2.60;;
19032;SDS011;9649;51.042;13.804;2023-04-19T12:58:55;4.55;;;2.50;;
19032;SDS011;9649;51.042;13.804;2023-04-19T13:03:58;5.00;;;2.55;;
19032;SDS011;9649;51.042;13.804;2023-04-19T13:09:01;6.90;;;2.42;;
19032;SDS011;9649;51.042;13.804;2023-04-19T13:14:16;6.97;;;2.78;;
19032;SDS011;9649;51.042;13.804;2023-04-19T13:19:19;6.35;;;2.85;;
19032;SDS011;9649;51.042;13.804;2023-04-19T13:24:22;5.95;;;2.58;;
19032;SDS011;9649;51.042;13.804;2023-04-19T13:29:26;3.65;;;2.40;;
19032;SDS011;9649;51.042;13.804;2023-04-19T13:34:29;5.57;;;2.60;;
19032;SDS011;9649;51.042;13.804;2023-04-19T13:39:32;3.72;;;2.28;;
19032;SDS011;9649;51.042;13.804;2023-04-19T13:44:37;7.43;;;3.30;;
19032;SDS011;9649;51.042;13.804;2023-04-19T13:49:40;6.28;;;2.95;;
19032;SDS011;9649;51.042;13.804;2023-04-19T13:54:42;5.68;;;3.10;;
19032;SDS011;9649;51.042;13.804;2023-04-19T13:59:46;7.10;;;2.65;;
19032;SDS011;9649;51.042;13.804;2023-04-19T14:04:49;4.90;;;2.55;;
19032;SDS011;9649;51.042;13.804;2023-04-19T14:09:52;7.75;;;2.70;;
19032;SDS011;9649;51.042;13.804;2023-04-19T14:14:56;4.95;;;2.33;;
19032;SDS011;9649;51.042;13.804;2023-04-19T14:19:59;5.83;;;3.00;;
19032;SDS011;9649;51.042;13.804;2023-04-19T14:25:08;7.47;;;3.50;;
19032;SDS011;9649;51.042;13.804;2023-04-19T14:35:57;6.65;;;3.22;;
19032;SDS011;9649;51.042;13.804;2023-04-19T14:41:07;6.78;;;2.97;;
19032;SDS011;9649;51.042;13.804;2023-04-19T14:46:12;6.83;;;3.10;;
19032;SDS011;9649;51.042;13.804;2023-04-19T14:51:14;11.13;;;3.60;;
19032;SDS011;9649;51.042;13.804;2023-04-19T14:56:17;5.30;;;3.00;;
19032;SDS011;9649;51.042;13.804;2023-04-19T15:01:21;3.73;;;2.37;;
19032;SDS011;9649;51.042;13.804;2023-04-19T15:06:24;6.20;;;3.17;;
19032;SDS011;9649;51.042;13.804;2023-04-19T15:11:27;5.43;;;3.30;;
19032;SDS011;9649;51.042;13.804;2023-04-19T15:16:31;5.77;;;3.23;;
19032;SDS011;9649;51.042;13.804;2023-04-19T15:21:34;5.87;;;3.70;;
19032;SDS011;9649;51.042;13.804;2023-04-19T15:26:36;5.37;;;3.57;;
19032;SDS011;9649;51.042;13.804;2023-04-19T15:31:43;6.67;;;3.43;;
19032;SDS011;9649;51.042;13.804;2023-04-19T15:36:46;5.47;;;3.63;;
19032;SDS011;9649;51.042;13.804;2023-04-19T15:41:49;7.90;;;3.67;;
19032;SDS011;9649;51.042;13.804;2023-04-19T15:46:53;5.07;;;3.20;;
19032;SDS011;9649;51.042;13.804;2023-04-19T15:51:56;4.53;;;3.33;;
19032;SDS011;9649;51.042;13.804;2023-04-19T15:56:59;6.37;;;3.40;;
19032;SDS011;9649;51.042;13.804;2023-04-19T16:02:03;4.63;;;3.80;;
19032;SDS011;9649;51.042;13.804;2023-04-19T16:07:05;6.43;;;3.50;;
19032;SDS011;9649;51.042;13.804;2023-04-19T16:12:08;6.43;;;3.73;;
19032;SDS011;9649;51.042;13.804;2023-04-19T16:17:12;7.03;;;4.17;;
19032;SDS011;9649;51.042;13.804;2023-04-19T16:22:15;8.77;;;3.60;;
19032;SDS011;9649;51.042;13.804;2023-04-19T16:27:18;4.67;;;3.93;;
19032;SDS011;9649;51.042;13.804;2023-04-19T16:32:22;7.93;;;3.63;;
19032;SDS011;9649;51.042;13.804;2023-04-19T16:37:25;6.10;;;3.57;;
19032;SDS011;9649;51.042;13.804;2023-04-19T16:42:28;18.60;;;10.03;;
19032;SDS011;9649;51.042;13.804;2023-04-19T16:47:32;11.30;;;3.60;;
19032;SDS011;9649;51.042;13.804;2023-04-19T16:52:36;4.50;;;3.07;;
19032;SDS011;9649;51.042;13.804;2023-04-19T16:57:39;4.30;;;3.13;;
19032;SDS011;9649;51.042;13.804;2023-04-19T17:02:43;5.70;;;3.70;;
19032;SDS011;9649;51.042;13.804;2023-04-19T17:07:46;4.80;;;3.10;;
19032;SDS011;9649;51.042;13.804;2023-04-19T17:12:48;7.00;;;4.03;;
19032;SDS011;9649;51.042;13.804;2023-04-19T17:17:52;5.90;;;3.50;;
19032;SDS011;9649;51.042;13.804;2023-04-19T17:22:55;11.30;;;4.97;;
19032;SDS011;9649;51.042;13.804;2023-04-19T17:27:58;10.10;;;4.63;;
19032;SDS011;9649;51.042;13.804;2023-04-19T17:33:02;6.30;;;3.47;;
19032;SDS011;9649;51.042;13.804;2023-04-19T17:38:05;7.13;;;4.30;;
19032;SDS011;9649;51.042;13.804;2023-04-19T17:43:08;6.93;;;3.83;;
19032;SDS011;9649;51.042;13.804;2023-04-19T17:48:12;7.27;;;4.53;;
19032;SDS011;9649;51.042;13.804;2023-04-19T17:53:15;6.40;;;4.23;;
19032;SDS011;9649;51.042;13.804;2023-04-19T17:58:18;7.60;;;4.40;;
19032;SDS011;9649;51.042;13.804;2023-04-19T18:03:22;7.93;;;4.27;;
19032;SDS011;9649;51.042;13.804;2023-04-19T18:08:25;7.63;;;4.03;;
19032;SDS011;9649;51.042;13.804;2023-04-19T18:13:28;4.97;;;3.67;;
19032;SDS011;9649;51.042;13.804;2023-04-19T18:18:32;6.50;;;3.93;;
19032;SDS011;9649;51.042;13.804;2023-04-19T18:23:34;5.67;;;3.73;;
19032;SDS011;9649;51.042;13.804;2023-04-19T18:28:38;6.70;;;4.43;;
19032;SDS011;9649;51.042;13.804;2023-04-19T18:33:42;7.37;;;4.47;;
19032;SDS011;9649;51.042;13.804;2023-04-19T18:38:45;6.90;;;4.50;;
19032;SDS011;9649;51.042;13.804;2023-04-19T18:43:48;8.47;;;4.83;;
19032;SDS011;9649;51.042;13.804;2023-04-19T18:49:12;8.00;;;4.40;;
19032;SDS011;9649;51.042;13.804;2023-04-19T18:54:15;11.27;;;4.87;;
19032;SDS011;9649;51.042;13.804;2023-04-19T18:59:19;6.10;;;3.87;;
19032;SDS011;9649;51.042;13.804;2023-04-19T19:04:23;7.10;;;3.77;;
19032;SDS011;9649;51.042;13.804;2023-04-19T19:09:46;6.73;;;4.03;;
19032;SDS011;9649;51.042;13.804;2023-04-19T19:14:56;5.17;;;3.80;;
19032;SDS011;9649;51.042;13.804;2023-04-19T19:20:00;6.90;;;4.10;;
19032;SDS011;9649;51.042;13.804;2023-04-19T19:25:04;50.63;;;20.70;;
19032;SDS011;9649;51.042;13.804;2023-04-19T19:30:08;7.73;;;4.43;;
19032;SDS011;9649;51.042;13.804;2023-04-19T19:35:12;11.70;;;6.30;;
19032;SDS011;9649;51.042;13.804;2023-04-19T19:40:15;10.30;;;5.57;;
19032;SDS011;9649;51.042;13.804;2023-04-19T19:45:25;7.83;;;3.97;;
19032;SDS011;9649;51.042;13.804;2023-04-19T19:50:29;8.77;;;4.67;;
19032;SDS011;9649;51.042;13.804;2023-04-19T19:55:35;5.80;;;3.90;;
19032;SDS011;9649;51.042;13.804;2023-04-19T20:00:38;8.30;;;4.53;;
19032;SDS011;9649;51.042;13.804;2023-04-19T20:05:51;5.83;;;4.00;;
19032;SDS011;9649;51.042;13.804;2023-04-19T20:10:57;6.93;;;4.17;;
19032;SDS011;9649;51.042;13.804;2023-04-19T20:16:00;7.00;;;4.50;;
19032;SDS011;9649;51.042;13.804;2023-04-19T20:21:04;5.60;;;4.07;;
19032;SDS011;9649;51.042;13.804;2023-04-19T20:26:07;4.80;;;3.63;;
19032;SDS011;9649;51.042;13.804;2023-04-19T20:31:10;5.13;;;3.80;;
19032;SDS011;9649;51.042;13.804;2023-04-19T20:36:14;6.33;;;4.10;;
19032;SDS011;9649;51.042;13.804;2023-04-19T20:41:18;6.37;;;4.47;;
19032;SDS011;9649;51.042;13.804;2023-04-19T20:46:22;6.03;;;4.00;;
19032;SDS011;9649;51.042;13.804;2023-04-19T20:51:30;4.70;;;3.80;;
19032;SDS011;9649;51.042;13.804;2023-04-19T20:56:33;6.17;;;3.87;;
19032;SDS011;9649;51.042;13.804;2023-04-19T21:01:35;5.67;;;4.13;;
19032;SDS011;9649;51.042;13.804;2023-04-19T21:06:39;7.57;;;4.63;;
19032;SDS011;9649;51.042;13.804;2023-04-19T21:11:42;7.00;;;4.63;;
19032;SDS011;9649;51.042;13.804;2023-04-19T21:16:45;13.53;;;5.53;;
19032;SDS011;9649;51.042;13.804;2023-04-19T21:21:49;7.30;;;5.13;;
19032;SDS011;9649;51.042;13.804;2023-04-19T21:26:51;5.37;;;4.37;;
19032;SDS011;9649;51.042;13.804;2023-04-19T21:31:54;9.20;;;5.20;;
19032;SDS011;9649;51.042;13.804;2023-04-19T21:36:58;6.33;;;4.53;;
19032;SDS011;9649;51.042;13.804;2023-04-19T21:42:01;6.63;;;4.00;;
19032;SDS011;9649;51.042;13.804;2023-04-19T21:47:05;6.57;;;4.40;;
19032;SDS011;9649;51.042;13.804;2023-04-19T21:52:09;4.63;;;3.60;;
19032;SDS011;9649;51.042;13.804;2023-04-19T21:57:12;6.00;;;4.53;;
19032;SDS011;9649;51.042;13.804;2023-04-19T22:02:15;6.47;;;4.50;;
19032;SDS011;9649;51.042;13.804;2023-04-19T22:07:19;7.57;;;4.87;;
19032;SDS011;9649;51.042;13.804;2023-04-19T22:12:24;5.47;;;3.90;;
19032;SDS011;9649;51.042;13.804;2023-04-19T22:17:27;6.23;;;4.33;;
19032;SDS011;9649;51.042;13.804;2023-04-19T22:22:31;5.63;;;4.00;;
19032;SDS011;9649;51.042;13.804;2023-04-19T22:27:34;6.17;;;3.73;;
19032;SDS011;9649;51.042;13.804;2023-04-19T22:32:37;5.40;;;3.90;;
19032;SDS011;9649;51.042;13.804;2023-04-19T22:37:41;6.83;;;4.30;;
19032;SDS011;9649;51.042;13.804;2023-04-19T22:42:44;5.50;;;3.70;;
19032;SDS011;9649;51.042;13.804;2023-04-19T22:47:46;5.87;;;3.70;;
19032;SDS011;9649;51.042;13.804;2023-04-19T22:52:51;5.40;;;3.73;;
19032;SDS011;9649;51.042;13.804;2023-04-19T22:57:53;3.77;;;3.17;;
19032;SDS011;9649;51.042;13.804;2023-04-19T23:02:56;4.97;;;3.77;;
19032;SDS011;9649;51.042;13.804;2023-04-19T23:08:00;5.67;;;3.40;;
19032;SDS011;9649;51.042;13.804;2023-04-19T23:13:04;6.60;;;4.50;;
19032;SDS011;9649;51.042;13.804;2023-04-19T23:18:07;4.43;;;3.33;;
19032;SDS011;9649;51.042;13.804;2023-04-19T23:23:11;5.50;;;3.70;;
19032;SDS011;9649;51.042;13.804;2023-04-19T23:28:14;8.50;;;4.30;;
19032;SDS011;9649;51.042;13.804;2023-04-19T23:33:16;5.17;;;3.57;;
19032;SDS011;9649;51.042;13.804;2023-04-19T23:38:21;5.17;;;3.63;;
19032;SDS011;9649;51.042;13.804;2023-04-19T23:43:23;6.70;;;3.77;;
19032;SDS011;9649;51.042;13.804;2023-04-19T23:48:26;5.60;;;3.83;;
19032;SDS011;9649;51.042;13.804;2023-04-19T23:53:30;5.83;;;3.73;;
19032;SDS011;9649;51.042;13.804;2023-04-19T23:58:33;5.70;;;4.00;;
